Latest Weather Observations for Larapuna (Eddystone Point)

IDT60801

Issued at 12:01 am EDT Wednesday 29 January 2020 (issued every 10 minutes, with the page automatically refreshed every 10 minutes)

About weather observations | Map of weather stations | Latest weather observations for TAS | Other Formats
Station Details ID: 092045 Name: LARAPUNA (EDDYSTONE POINT) Lat: -40.99 Lon: 148.35 Height: 19.7 m
Data from the previous 72 hours. | See also: Recent months at Larapuna (Eddystone Point)
Date/Time
EDT
Temp
°C
App
Temp
°C
Dew
Point
°C
Rel
Hum
%
Delta-T
°C
Wind Press
QNH
hPa
Press
MSL
hPa
Rain since
9am
mm
Dir  Spd
km/h
Gust
km/h
Spd
kts
Gust
kts
29/12:00am 16.8 9.9 12.9 78 2.2 W 41 52 22 28 1011.3 1011.3 0.0
 
Date/Time
EDT
Temp
°C
App
Temp
°C
Dew
Point
°C
Rel
Hum
%
Delta-T
°C
Wind Press
QNH
hPa
Press
MSL
hPa
Rain since
9am
mm
Dir  Spd
km/h
Gust
km/h
Spd
kts
Gust
kts
28/11:30pm 16.9 11.8 13.0 78 2.2 W 32 46 17 25 1011.7 1011.7 0.0
28/11:00pm 17.0 11.6 12.9 77 2.3 W 33 48 18 26 1011.6 1011.6 0.0
28/10:30pm 17.1 11.7 12.8 76 2.4 W 33 46 18 25 1011.8 1011.8 0.0
28/10:00pm 17.2 11.5 12.9 76 2.4 WNW 35 46 19 25 1011.7 1011.7 0.0
28/09:30pm 17.2 11.8 12.9 76 2.4 WNW 33 44 18 24 1011.5 1011.5 0.0
28/09:00pm 17.5 11.7 12.8 74 2.6 WNW 35 50 19 27 1011.2 1011.2 0.0
28/08:30pm 18.1 11.3 13.0 72 2.9 WNW 41 57 22 31 1011.1 1011.1 0.0
28/08:20pm 18.3 12.2 13.0 71 3.0 WNW 37 59 20 32 1010.9 1010.9 0.0
28/08:00pm 18.9 12.8 13.1 69 3.3 WNW 37 52 20 28 1010.7 1010.7 0.0
28/07:30pm 19.7 12.9 13.2 66 3.7 WNW 41 54 22 29 1010.5 1010.5 0.0
28/07:00pm 20.5 15.8 13.2 63 4.2 WNW 30 41 16 22 1010.7 1010.7 0.0
28/06:30pm 21.2 16.1 13.1 60 4.6 WNW 32 43 17 23 1010.3 1010.3 0.0
28/06:00pm 21.3 15.5 12.7 58 4.9 WNW 35 50 19 27 1009.9 1009.9 0.0
28/05:30pm 21.6 16.4 12.7 57 5.1 WNW 32 44 17 24 1010.0 1010.0 0.0
28/05:04pm 22.0 16.2 12.8 56 5.2 WNW 35 54 19 29 1010.2 1010.2 0.0
28/05:00pm 22.5 16.9 13.3 56 5.3 WNW 35 50 19 27 1010.3 1010.3 0.0
28/04:30pm 22.5 16.1 13.3 56 5.3 WNW 39 50 21 27 1010.2 1010.2 0.0
28/04:00pm 22.7 16.9 12.6 53 5.8 WNW 35 48 19 26 1010.0 1010.0 0.0
28/03:32pm 22.1 15.2 12.9 56 5.3 WNW 41 59 22 32 1010.2 1010.2 0.0
28/03:30pm 22.1 15.6 12.9 56 5.3 WNW 39 56 21 30 1010.2 1010.2 0.0
28/03:00pm 21.9 14.5 13.0 57 5.1 WNW 44 63 24 34 1010.2 1010.2 0.0
28/02:59pm 21.6 14.1 12.7 57 5.1 WNW 44 63 24 34 1010.1 1010.1 0.0
28/02:30pm 22.0 14.0 12.5 54 5.4 WNW 46 63 25 34 1009.9 1009.9 0.0
28/02:00pm 23.1 15.0 12.1 50 6.2 WNW 46 61 25 33 1010.2 1010.2 0.0
28/01:38pm 22.7 15.1 12.3 52 5.9 WNW 44 63 24 34 1010.1 1010.1 0.0
28/01:30pm 22.2 14.1 11.9 52 5.8 WNW 46 63 25 34 1010.2 1010.2 0.0
28/01:08pm 22.6 14.4 11.7 50 6.1 WNW 46 65 25 35 1010.2 1010.2 0.0
28/01:00pm 22.5 14.4 11.9 51 6.0 WNW 46 61 25 33 1010.1 1010.1 0.0
28/12:35pm 21.3 13.0 11.3 53 5.5 WNW 46 69 25 37 1010.2 1010.2 0.0
28/12:30pm 20.6 12.6 11.0 54 5.3 WNW 44 61 24 33 1010.3 1010.3 0.0
28/12:00pm 20.1 13.7 10.8 55 5.1 WNW 35 56 19 30 1010.5 1010.5 0.0
28/11:52am 19.9 13.5 10.6 55 5.0 WNW 35 54 19 29 1010.7 1010.7 0.0
28/11:30am 18.7 11.3 10.0 57 4.6 WNW 39 56 21 30 1011.1 1011.1 0.0
28/11:01am 17.6 9.7 9.5 59 4.2 WNW 41 59 22 32 1011.2 1011.2 0.0
28/11:00am 17.6 9.3 9.5 59 4.3 WNW 43 59 23 32 1011.2 1011.2 0.0
28/10:30am 16.9 11.0 10.5 66 3.4 WNW 32 50 17 27 1011.5 1011.5 0.0
28/10:29am 16.9 11.0 10.5 66 3.4 WNW 32 50 17 27 1011.5 1011.5 0.0
28/10:00am 16.4 11.0 10.9 70 2.9 WNW 30 43 16 23 1011.6 1011.6 0.0
28/09:30am 15.9 10.9 10.9 72 2.7 WNW 28 39 15 21 1011.9 1011.9 0.0
28/09:00am 15.7 9.0 10.9 73 2.6 WNW 37 50 20 27 1011.4 1011.4 0.0
28/08:41am 15.6 9.1 10.4 71 2.7 WNW 35 54 19 29 1011.0 1011.0 0.0
28/08:30am 15.6 9.5 10.4 71 2.7 WNW 33 46 18 25 1011.2 1011.2 0.0
28/08:00am 15.3 8.7 9.9 70 2.8 WNW 35 52 19 28 1011.2 1011.2 0.0
28/07:42am 15.2 9.4 9.3 68 3.0 WNW 30 50 16 27 1011.0 1011.0 0.0
28/07:30am 15.2 10.1 9.3 68 3.0 WNW 26 35 14 19 1011.0 1011.0 0.0
28/07:00am 15.2 10.8 9.1 67 3.1 WNW 22 35 12 19 1011.2 1011.2 0.0
28/06:30am 14.7 11.3 9.3 70 2.8 WNW 17 28 9 15 1011.1 1011.1 0.0
28/06:00am 14.7 11.0 9.3 70 2.8 W 19 30 10 16 1011.1 1011.1 0.0
28/05:30am 14.7 10.5 9.9 73 2.5 WNW 22 35 12 19 1011.0 1011.0 0.0
28/05:00am 14.6 10.5 10.2 75 2.3 NW 22 30 12 16 1011.0 1011.0 0.0
28/04:30am 14.7 9.6 10.7 77 2.1 WNW 28 37 15 20 1011.2 1011.2 0.0
28/04:00am 14.8 10.6 11.0 78 2.0 WNW 24 33 13 18 1011.4 1011.4 0.0
28/03:30am 14.9 11.5 11.3 79 1.9 WNW 20 32 11 17 1011.9 1011.9 0.0
28/03:00am 14.9 11.8 11.5 80 1.8 WNW 19 28 10 15 1011.7 1011.7 0.0
28/02:30am 14.9 11.7 11.9 82 1.6 NW 20 26 11 14 1012.1 1012.1 0.0
28/02:00am 15.0 10.9 11.6 80 1.8 WNW 24 33 13 18 1012.1 1012.1 0.0
28/01:30am 15.0 12.0 11.8 81 1.7 NW 19 32 10 17 1012.3 1012.3 0.0
28/01:00am 14.8 12.1 11.6 81 1.7 NNW 17 22 9 12 1012.6 1012.6 0.0
28/12:30am 14.7 13.4 11.1 79 1.9 NNE 9 15 5 8 1013.1 1013.1 0.0
28/12:00am 14.7 12.2 11.1 79 1.9 NNW 15 20 8 11 1013.3 1013.3 0.0
 
Date/Time
EDT
Temp
°C
App
Temp
°C
Dew
Point
°C
Rel
Hum
%
Delta-T
°C
Wind Press
QNH
hPa
Press
MSL
hPa
Rain since
9am
mm
Dir  Spd
km/h
Gust
km/h
Spd
kts
Gust
kts
27/11:30pm 15.0 11.7 10.8 76 2.2 NW 19 28 10 15 1013.2 1013.2 0.0
27/11:00pm 15.3 10.2 10.7 74 2.4 WNW 28 43 15 23 1013.1 1013.1 0.0
27/10:30pm 15.3 10.2 10.7 74 2.4 W 28 39 15 21 1013.5 1013.5 0.0
27/10:00pm 15.5 10.4 10.7 73 2.5 W 28 39 15 21 1013.4 1013.4 0.0
27/09:30pm 15.6 10.9 10.8 73 2.6 WNW 26 32 14 17 1013.3 1013.3 0.0
27/09:00pm 15.9 10.8 10.7 71 2.8 WNW 28 37 15 20 1012.8 1012.8 0.0
27/08:30pm 16.3 11.1 10.4 68 3.1 WNW 28 39 15 21 1012.8 1012.8 0.0
27/08:00pm 16.8 12.2 11.1 69 3.1 WNW 26 35 14 19 1012.5 1012.5 0.0
27/07:30pm 17.5 12.1 10.9 65 3.6 NW 30 44 16 24 1012.1 1012.1 0.0
27/07:00pm 18.0 13.3 10.6 62 4.0 WNW 26 37 14 20 1012.2 1012.2 0.0
27/06:30pm 19.7 13.5 9.9 53 5.2 WNW 33 46 18 25 1011.8 1011.8 0.0
27/06:00pm 20.0 14.2 9.3 50 5.7 WNW 30 43 16 23 1011.7 1011.7 0.0
27/05:30pm 20.3 14.1 8.0 45 6.4 WNW 30 43 16 23 1011.9 1011.9 0.0
27/05:00pm 20.8 16.0 8.8 46 6.3 WNW 24 35 13 19 1011.8 1011.8 0.0
27/04:30pm 19.8 15.4 8.8 49 5.8 W 22 33 12 18 1012.2 1012.2 0.0
27/04:00pm 18.5 12.5 8.7 53 5.1 WNW 30 39 16 21 1012.3 1012.3 0.0
27/03:30pm 18.2 13.5 9.3 56 4.7 W 24 37 13 20 1012.6 1012.6 0.0
27/03:00pm 17.9 13.3 9.5 58 4.4 WNW 24 35 13 19 1012.8 1012.8 0.0
27/02:30pm 17.7 12.6 9.3 58 4.4 WNW 26 39 14 21 1012.7 1012.7 0.0
27/02:00pm 17.5 11.4 8.4 55 4.7 WNW 30 43 16 23 1013.1 1013.1 0.0
27/01:30pm 17.7 12.9 8.8 56 4.6 WNW 24 35 13 19 1013.1 1013.1 0.0
27/01:00pm 17.6 12.6 8.2 54 4.8 WNW 24 37 13 20 1012.8 1012.8 0.0
27/12:30pm 17.7 12.8 8.6 55 4.7 WNW 24 33 13 18 1013.0 1013.0 0.0
27/12:00pm 17.1 11.7 8.0 55 4.6 WNW 26 37 14 20 1013.2 1013.2 0.0
27/11:30am 16.8 11.7 7.7 55 4.6 WNW 24 35 13 19 1013.2 1013.2 0.0
27/11:00am 16.3 12.0 8.0 58 4.2 WNW 20 32 11 17 1013.7 1013.7 0.0
27/10:30am 15.8 11.6 7.6 58 4.1 W 19 26 10 14 1014.0 1014.0 0.0
27/10:00am 15.9 9.5 6.9 55 4.4 W 30 44 16 24 1013.7 1013.7 0.0
27/09:56am 15.8 9.3 6.5 54 4.5 W 30 44 16 24 1013.7 1013.7 0.0
27/09:30am 15.5 11.2 7.0 57 4.2 W 19 26 10 14 1013.2 1013.2 0.0
27/09:00am 14.9 10.5 6.7 58 4.0 W 19 32 10 17 1013.8 1013.8 0.0
27/08:30am 14.3 9.0 6.9 61 3.6 WNW 24 30 13 16 1013.4 1013.4 0.0
27/08:00am 13.6 10.0 6.9 64 3.2 W 15 20 8 11 1012.8 1012.8 0.0
27/07:30am 13.5 9.9 6.8 64 3.2 WNW 15 24 8 13 1012.7 1012.7 0.0
27/07:00am 12.8 8.8 6.6 66 3.0 W 17 24 9 13 1012.2 1012.2 0.0
27/06:30am 12.6 9.5 7.3 70 2.6 WNW 13 19 7 10 1012.0 1012.0 0.0
27/06:00am 12.8 9.3 7.3 69 2.7 NW 15 17 8 9 1012.2 1012.2 0.0
27/05:30am 12.6 9.4 6.9 68 2.7 W 13 17 7 9 1011.9 1011.9 0.0
27/05:00am 12.7 10.0 7.2 69 2.7 W 11 17 6 9 1011.9 1011.9 0.0
27/04:30am 13.1 9.3 7.5 69 2.7 WNW 17 20 9 11 1012.3 1012.3 0.0
27/04:00am 13.5 9.4 7.7 68 2.9 WNW 19 20 10 11 1012.3 1012.3 0.0
27/03:30am 13.3 9.1 8.4 72 2.4 WNW 20 26 11 14 1012.6 1012.6 0.0
27/03:00am 13.0 9.1 8.7 75 2.2 W 19 24 10 13 1012.7 1012.7 0.0
27/02:30am 13.4 10.5 9.5 77 2.0 WNW 15 19 8 10 1012.3 1012.3 0.0
27/02:00am 14.3 13.5 9.7 74 2.4 NW 4 7 2 4 1012.5 1012.5 0.0
27/01:30am 14.1 13.0 9.9 76 2.2 SSW 6 13 3 7 1012.7 1012.7 0.0
27/01:00am 14.4 12.0 10.0 75 2.3 W 13 17 7 9 1013.0 1013.0 0.0
27/12:30am 14.8 12.3 9.8 72 2.6 W 13 17 7 9 1013.0 1013.0 0.0
27/12:00am 14.8 11.7 10.2 74 2.4 WNW 17 24 9 13 1013.0 1013.0 0.0
 
Date/Time
EDT
Temp
°C
App
Temp
°C
Dew
Point
°C
Rel
Hum
%
Delta-T
°C
Wind Press
QNH
hPa
Press
MSL
hPa
Rain since
9am
mm
Dir  Spd
km/h
Gust
km/h
Spd
kts
Gust
kts
26/11:30pm 15.2 11.5 10.2 72 2.6 WNW 20 28 11 15 1013.0 1013.0 0.0
26/11:00pm 15.3 12.8 10.9 75 2.3 NW 15 19 8 10 1013.0 1013.0 0.0
26/10:30pm 15.7 13.3 11.3 75 2.4 NNW 15 20 8 11 1012.8 1012.8 0.0
26/10:00pm 15.9 13.3 10.7 71 2.8 NW 15 19 8 10 1012.7 1012.7 0.0
26/09:30pm 15.9 13.5 10.0 68 3.1 W 13 20 7 11 1012.9 1012.9 0.0
26/09:00pm 16.6 13.5 10.2 66 3.4 W 17 28 9 15 1012.3 1012.3 0.0
26/08:30pm 17.1 13.4 10.2 64 3.7 W 20 30 11 16 1011.7 1011.7 0.0
26/08:00pm 17.9 12.4 10.5 62 4.0 W 30 44 16 24 1011.5 1011.5 0.0
26/07:30pm 18.1 11.7 10.7 62 4.0 WNW 35 56 19 30 1010.6 1010.6 0.0
26/07:01pm 18.3 10.9 11.1 63 3.9 NW 41 59 22 32 1009.4 1009.4 0.0
26/07:00pm 18.4 11.4 11.2 63 3.9 NW 39 52 21 28 1009.3 1009.3 0.0
26/06:30pm 18.7 11.2 10.8 60 4.3 NW 41 54 22 29 1009.2 1009.2 0.0
26/06:00pm 19.0 12.7 11.1 60 4.3 NW 35 48 19 26 1009.3 1009.3 0.0
26/05:30pm 19.6 12.6 11.1 58 4.6 NW 39 52 21 28 1009.1 1009.1 0.0
26/05:00pm 20.8 14.5 10.9 53 5.4 WNW 35 46 19 25 1009.0 1009.0 0.0
26/04:30pm 21.2 15.3 12.3 57 5.0 NW 35 50 19 27 1009.2 1009.2 0.0
26/04:09pm 22.1 15.7 12.1 53 5.6 WNW 37 56 20 30 1008.8 1008.8 0.0
26/04:00pm 22.0 15.1 11.7 52 5.8 NW 39 56 21 30 1008.5 1008.5 0.0
26/03:30pm 22.6 14.8 11.7 50 6.1 WNW 44 63 24 34 1008.4 1008.4 0.0
26/03:00pm 22.4 15.2 10.5 47 6.5 WNW 39 70 21 38 1008.4 1008.4 0.0
26/02:34pm 23.7 16.4 11.4 46 6.9 WNW 41 59 22 32 1008.5 1008.5 0.0
26/02:30pm 23.4 15.8 11.8 48 6.5 WNW 43 59 23 32 1008.5 1008.5 0.0
26/02:00pm 23.6 17.7 13.5 53 5.9 WNW 37 57 20 31 1008.4 1008.4 0.0
26/01:57pm 23.6 17.3 13.5 53 5.9 W 39 57 21 31 1008.5 1008.5 0.0
26/01:48pm 23.2 17.2 13.4 54 5.7 WNW 37 59 20 32 1008.4 1008.4 0.0
26/01:30pm 23.1 18.5 15.2 61 4.7 NW 33 52 18 28 1008.6 1008.6 0.0
26/01:02pm 21.9 17.2 14.8 64 4.2 NW 33 54 18 29 1008.8 1008.8 0.0
26/01:00pm 21.8 17.5 15.4 67 3.8 WNW 32 46 17 25 1009.0 1009.0 0.0
26/12:30pm 20.0 14.8 14.6 71 3.2 WNW 35 52 19 28 1009.7 1009.7 0.0
26/12:22pm 19.9 15.4 14.9 73 2.9 WNW 32 50 17 27 1009.8 1009.8 0.0
26/12:00pm 19.9 14.1 14.9 73 2.9 WNW 39 54 21 29 1009.8 1009.8 0.0
26/11:42am 20.0 14.0 14.4 70 3.3 WNW 39 57 21 31 1009.9 1009.9 0.0
26/11:30am 20.3 14.5 14.9 71 3.2 WNW 39 50 21 27 1009.9 1009.9 0.0
26/11:00am 20.3 14.6 15.1 72 3.1 WNW 39 52 21 28 1009.8 1009.8 0.0
26/10:30am 19.6 13.3 14.6 73 2.9 WNW 41 54 22 29 1009.8 1009.8 0.0
26/10:11am 19.7 14.5 14.5 72 3.0 WNW 35 56 19 30 1009.9 1009.9 0.0
26/10:00am 19.5 13.5 14.5 73 2.9 WNW 39 54 21 29 1009.9 1009.9 0.0
26/09:30am 19.0 14.7 14.5 75 2.6 NW 30 44 16 24 1010.0 1010.0 0.0
26/09:00am 18.6 15.1 14.5 77 2.4 NW 26 43 14 23 1010.2 1010.2 0.0
26/08:30am 17.9 14.5 14.8 82 1.8 NW 26 39 14 21 1010.4 1010.4 0.0
26/08:00am 17.8 13.2 14.7 82 1.8 NW 32 41 17 22 1010.3 1010.3 0.0
26/07:30am 17.6 13.1 14.9 84 1.6 NW 32 46 17 25 1010.2 1010.2 0.0
26/07:13am 17.5 13.4 15.0 85 1.5 NW 30 48 16 26 1010.2 1010.2 0.0
26/07:00am 17.4 12.9 14.9 85 1.5 WNW 32 43 17 23 1010.2 1010.2 0.0
26/06:30am 17.1 13.0 14.9 87 1.3 NW 30 41 16 22 1010.2 1010.2 0.0
26/06:00am 17.1 12.9 14.7 86 1.4 NW 30 41 16 22 1010.1 1010.1 0.0
26/05:30am 17.1 13.4 14.9 87 1.3 NW 28 39 15 21 1010.0 1010.0 0.0
26/05:00am 17.1 14.1 14.7 86 1.4 NW 24 35 13 19 1009.9 1009.9 0.0
26/04:30am 17.2 13.4 14.8 86 1.4 NW 28 39 15 21 1009.9 1009.9 0.0
26/04:00am 17.0 14.0 14.8 87 1.3 NW 24 32 13 17 1010.0 1010.0 0.0
26/03:30am 16.9 13.6 14.9 88 1.2 NW 26 35 14 19 1010.2 1010.2 0.0
26/03:00am 16.8 13.8 14.8 88 1.2 NNW 24 33 13 18 1010.4 1010.4 0.0
26/02:30am 16.8 13.7 14.4 86 1.4 NW 24 32 13 17 1010.6 1010.6 0.0
26/02:00am 17.1 14.0 14.6 85 1.4 NW 24 33 13 18 1010.7 1010.7 0.0
26/01:30am 16.9 14.4 14.2 84 1.5 WNW 20 28 11 15 1011.0 1011.0 0.0
26/01:00am 17.1 14.6 14.0 82 1.8 WNW 20 30 11 16 1011.3 1011.3 0.0
26/12:31am 17.3 13.4 14.4 83 1.7 WNW 28 46 15 25 1011.7 1011.7 0.0
26/12:30am 17.3 13.0 14.4 83 1.7 WNW 30 46 16 25 1011.7 1011.7 0.0
26/12:26am 17.3 13.4 14.4 83 1.7 WNW 28 46 15 25 1011.7 1011.7 0.0

Other formats

Comma delimited format used in spreadsheet applications
http://www.bom.gov.au/fwo/IDT60801/IDT60801.94983.axf

JavaScript Object Notation format (JSON) in row-major order
http://www.bom.gov.au/fwo/IDT60801/IDT60801.94983.json

Data quality

Most of these data are generated automatically and are frequently updated. Quality checks on data are not normally performed. It is possible for incorrect values to appear. Refer to information at About Latest Weather Observations and please check the disclaimer before using these data.